sensor_id;sensor_type;location;lat;lon;timestamp;pressure;altitude;pressure_sealevel;temperature;humidity
47522;BME280;32291;52.010;4.446;2023-05-22T00:00:13;78484.50;;;-144.67;100.00
47522;BME280;32291;52.010;4.446;2023-05-22T00:01:15;78488.78;;;-144.67;100.00
47522;BME280;32291;52.010;4.446;2023-05-22T00:02:19;78490.94;;;-144.67;100.00
47522;BME280;32291;52.010;4.446;2023-05-22T00:03:23;78486.66;;;-144.67;100.00
47522;BME280;32291;52.010;4.446;2023-05-22T00:04:24;78478.09;;;-144.67;100.00
47522;BME280;32291;52.010;4.446;2023-05-22T00:05:30;78480.22;;;-144.67;100.00
47522;BME280;32291;52.010;4.446;2023-05-22T00:06:34;78484.50;;;-144.67;100.00
47522;BME280;32291;52.010;4.446;2023-05-22T00:07:37;78486.66;;;-144.67;100.00
47522;BME280;32291;52.010;4.446;2023-05-22T00:08:39;78484.50;;;-144.67;100.00
47522;BME280;32291;52.010;4.446;2023-05-22T00:09:41;78484.50;;;-144.67;100.00
47522;BME280;32291;52.010;4.446;2023-05-22T00:10:42;78488.78;;;-144.67;100.00
47522;BME280;32291;52.010;4.446;2023-05-22T00:11:44;78488.78;;;-144.67;100.00
47522;BME280;32291;52.010;4.446;2023-05-22T00:12:46;78488.78;;;-144.67;100.00
47522;BME280;32291;52.010;4.446;2023-05-22T00:13:48;78488.78;;;-144.67;100.00
47522;BME280;32291;52.010;4.446;2023-05-22T00:14:50;78480.22;;;-144.67;100.00
47522;BME280;32291;52.010;4.446;2023-05-22T00:15:53;78484.50;;;-144.67;100.00
47522;BME280;32291;52.010;4.446;2023-05-22T00:16:55;78486.66;;;-144.67;100.00
47522;BME280;32291;52.010;4.446;2023-05-22T00:17:58;78480.22;;;-144.67;100.00
47522;BME280;32291;52.010;4.446;2023-05-22T00:18:59;78480.22;;;-144.67;100.00
47522;BME280;32291;52.010;4.446;2023-05-22T00:20:03;78484.50;;;-144.67;100.00
47522;BME280;32291;52.010;4.446;2023-05-22T00:21:10;78484.50;;;-144.67;100.00
47522;BME280;32291;52.010;4.446;2023-05-22T00:22:13;78480.22;;;-144.67;100.00
47522;BME280;32291;52.010;4.446;2023-05-22T00:23:17;78482.38;;;-144.67;100.00
47522;BME280;32291;52.010;4.446;2023-05-22T00:24:18;78482.38;;;-144.67;100.00
47522;BME280;32291;52.010;4.446;2023-05-22T00:25:20;78478.09;;;-144.67;100.00
47522;BME280;32291;52.010;4.446;2023-05-22T00:26:22;78473.81;;;-144.67;100.00
47522;BME280;32291;52.010;4.446;2023-05-22T00:27:24;78480.22;;;-144.67;100.00
47522;BME280;32291;52.010;4.446;2023-05-22T00:28:27;78480.22;;;-144.67;100.00
47522;BME280;32291;52.010;4.446;2023-05-22T00:29:28;78478.09;;;-144.67;100.00
47522;BME280;32291;52.010;4.446;2023-05-22T00:30:30;78484.50;;;-144.67;100.00
47522;BME280;32291;52.010;4.446;2023-05-22T00:31:33;78484.50;;;-144.67;100.00
47522;BME280;32291;52.010;4.446;2023-05-22T00:32:35;78482.38;;;-144.67;100.00
47522;BME280;32291;52.010;4.446;2023-05-22T00:33:36;78484.50;;;-144.67;100.00
47522;BME280;32291;52.010;4.446;2023-05-22T00:34:38;78486.66;;;-144.67;100.00
47522;BME280;32291;52.010;4.446;2023-05-22T00:35:40;78484.50;;;-144.67;100.00
47522;BME280;32291;52.010;4.446;2023-05-22T00:36:43;78497.34;;;-144.67;100.00
47522;BME280;32291;52.010;4.446;2023-05-22T00:37:45;78488.78;;;-144.67;100.00
47522;BME280;32291;52.010;4.446;2023-05-22T00:38:47;78486.66;;;-144.67;100.00
47522;BME280;32291;52.010;4.446;2023-05-22T00:39:49;78490.94;;;-144.67;100.00
47522;BME280;32291;52.010;4.446;2023-05-22T00:40:50;78490.94;;;-144.67;100.00
47522;BME280;32291;52.010;4.446;2023-05-22T00:41:52;78493.06;;;-144.67;100.00
47522;BME280;32291;52.010;4.446;2023-05-22T00:42:54;78501.63;;;-144.67;100.00
47522;BME280;32291;52.010;4.446;2023-05-22T00:43:55;78501.63;;;-144.67;100.00
47522;BME280;32291;52.010;4.446;2023-05-22T00:44:57;78499.50;;;-144.67;100.00
47522;BME280;32291;52.010;4.446;2023-05-22T00:45:59;78497.34;;;-144.67;100.00
47522;BME280;32291;52.010;4.446;2023-05-22T00:47:00;78501.63;;;-144.67;100.00
47522;BME280;32291;52.010;4.446;2023-05-22T00:48:02;78501.63;;;-144.67;100.00
47522;BME280;32291;52.010;4.446;2023-05-22T00:49:04;78508.06;;;-144.67;100.00
47522;BME280;32291;52.010;4.446;2023-05-22T00:50:09;78505.91;;;-144.67;100.00
47522;BME280;32291;52.010;4.446;2023-05-22T00:51:12;78505.91;;;-144.67;100.00
47522;BME280;32291;52.010;4.446;2023-05-22T00:52:15;78503.78;;;-144.67;100.00
47522;BME280;32291;52.010;4.446;2023-05-22T00:53:20;78505.91;;;-144.67;100.00
47522;BME280;32291;52.010;4.446;2023-05-22T00:54:23;78499.50;;;-144.67;100.00
47522;BME280;32291;52.010;4.446;2023-05-22T00:55:24;78493.06;;;-144.67;100.00
47522;BME280;32291;52.010;4.446;2023-05-22T00:56:26;78486.66;;;-144.67;100.00
47522;BME280;32291;52.010;4.446;2023-05-22T00:57:30;78480.22;;;-144.67;100.00
47522;BME280;32291;52.010;4.446;2023-05-22T00:58:34;78467.38;;;-144.67;100.00
47522;BME280;32291;52.010;4.446;2023-05-22T00:59:36;78467.38;;;-144.67;100.00
47522;BME280;32291;52.010;4.446;2023-05-22T01:00:40;78456.66;;;-144.67;100.00
47522;BME280;32291;52.010;4.446;2023-05-22T01:01:42;78456.66;;;-144.67;100.00
47522;BME280;32291;52.010;4.446;2023-05-22T01:02:45;78450.25;;;-144.67;100.00
47522;BME280;32291;52.010;4.446;2023-05-22T01:03:46;78448.09;;;-144.67;100.00
47522;BME280;32291;52.010;4.446;2023-05-22T01:04:48;78441.69;;;-144.67;100.00
47522;BME280;32291;52.010;4.446;2023-05-22T01:05:51;78437.41;;;-144.67;100.00
47522;BME280;32291;52.010;4.446;2023-05-22T01:06:54;78428.84;;;-144.67;100.00
47522;BME280;32291;52.010;4.446;2023-05-22T01:07:55;78426.69;;;-144.67;100.00
47522;BME280;32291;52.010;4.446;2023-05-22T01:08:57;78420.28;;;-144.67;100.00
47522;BME280;32291;52.010;4.446;2023-05-22T01:09:59;78422.41;;;-144.67;100.00
47522;BME280;32291;52.010;4.446;2023-05-22T01:11:12;78422.41;;;-144.67;100.00
47522;BME280;32291;52.010;4.446;2023-05-22T01:12:51;78426.69;;;-144.67;100.00
47522;BME280;32291;52.010;4.446;2023-05-22T01:18:43;78435.25;;;-144.67;100.00
47522;BME280;32291;52.010;4.446;2023-05-22T01:26:18;78441.69;;;-144.67;100.00
47522;BME280;32291;52.010;4.446;2023-05-22T01:31:01;78452.38;;;-144.67;100.00
47522;BME280;32291;52.010;4.446;2023-05-22T01:32:09;78454.53;;;-144.67;100.00
47522;BME280;32291;52.010;4.446;2023-05-22T01:33:17;78448.09;;;-144.67;100.00
47522;BME280;32291;52.010;4.446;2023-05-22T01:34:21;78454.53;;;-144.67;100.00
47522;BME280;32291;52.010;4.446;2023-05-22T01:35:25;78454.53;;;-144.67;100.00
47522;BME280;32291;52.010;4.446;2023-05-22T01:36:32;78454.53;;;-144.67;100.00
47522;BME280;32291;52.010;4.446;2023-05-22T01:37:38;78454.53;;;-144.67;100.00
47522;BME280;32291;52.010;4.446;2023-05-22T01:38:42;78450.25;;;-144.67;100.00
47522;BME280;32291;52.010;4.446;2023-05-22T01:39:45;78450.25;;;-144.67;100.00
47522;BME280;32291;52.010;4.446;2023-05-22T01:40:47;78443.81;;;-144.67;100.00
47522;BME280;32291;52.010;4.446;2023-05-22T01:41:50;78441.69;;;-144.67;100.00
47522;BME280;32291;52.010;4.446;2023-05-22T01:42:52;78443.81;;;-144.67;100.00
47522;BME280;32291;52.010;4.446;2023-05-22T01:43:55;78443.81;;;-144.67;100.00
47522;BME280;32291;52.010;4.446;2023-05-22T01:44:57;78439.53;;;-144.67;100.00
47522;BME280;32291;52.010;4.446;2023-05-22T01:45:59;78443.81;;;-144.67;100.00
47522;BME280;32291;52.010;4.446;2023-05-22T01:47:02;78445.97;;;-144.67;100.00
47522;BME280;32291;52.010;4.446;2023-05-22T01:48:05;78448.09;;;-144.67;100.00
47522;BME280;32291;52.010;4.446;2023-05-22T01:49:07;78448.09;;;-144.67;100.00
47522;BME280;32291;52.010;4.446;2023-05-22T01:50:10;78450.25;;;-144.67;100.00
47522;BME280;32291;52.010;4.446;2023-05-22T01:52:54;78445.97;;;-144.67;100.00
47522;BME280;32291;52.010;4.446;2023-05-22T01:54:09;78450.25;;;-144.67;100.00
47522;BME280;32291;52.010;4.446;2023-05-22T01:55:33;78452.38;;;-144.67;100.00
47522;BME280;32291;52.010;4.446;2023-05-22T01:56:51;78443.81;;;-144.67;100.00
47522;BME280;32291;52.010;4.446;2023-05-22T01:58:12;78437.41;;;-144.67;100.00
47522;BME280;32291;52.010;4.446;2023-05-22T02:00:38;78428.84;;;-144.67;100.00
47522;BME280;32291;52.010;4.446;2023-05-22T02:01:44;78430.97;;;-144.67;100.00
47522;BME280;32291;52.010;4.446;2023-05-22T02:02:57;78430.97;;;-144.67;100.00
47522;BME280;32291;52.010;4.446;2023-05-22T02:04:03;78416.00;;;-144.67;100.00
47522;BME280;32291;52.010;4.446;2023-05-22T02:05:08;78416.00;;;-144.67;100.00
47522;BME280;32291;52.010;4.446;2023-05-22T02:06:13;78411.72;;;-144.67;100.00
47522;BME280;32291;52.010;4.446;2023-05-22T02:07:21;78413.84;;;-144.67;100.00
47522;BME280;32291;52.010;4.446;2023-05-22T02:08:26;78418.13;;;-144.67;100.00
47522;BME280;32291;52.010;4.446;2023-05-22T02:09:30;78420.28;;;-144.67;100.00
47522;BME280;32291;52.010;4.446;2023-05-22T02:10:34;78411.72;;;-144.67;100.00
47522;BME280;32291;52.010;4.446;2023-05-22T02:11:38;78416.00;;;-144.67;100.00
47522;BME280;32291;52.010;4.446;2023-05-22T02:12:41;78411.72;;;-144.67;100.00
47522;BME280;32291;52.010;4.446;2023-05-22T02:13:43;78416.00;;;-144.67;100.00
47522;BME280;32291;52.010;4.446;2023-05-22T02:14:45;78413.84;;;-144.67;100.00
47522;BME280;32291;52.010;4.446;2023-05-22T02:15:47;78413.84;;;-144.67;100.00
47522;BME280;32291;52.010;4.446;2023-05-22T02:16:49;78411.72;;;-144.67;100.00
47522;BME280;32291;52.010;4.446;2023-05-22T02:17:51;78411.72;;;-144.67;100.00
47522;BME280;32291;52.010;4.446;2023-05-22T02:19:01;78418.13;;;-144.67;100.00
47522;BME280;32291;52.010;4.446;2023-05-22T02:20:10;78409.56;;;-144.67;100.00
47522;BME280;32291;52.010;4.446;2023-05-22T02:21:15;78409.56;;;-144.67;100.00
47522;BME280;32291;52.010;4.446;2023-05-22T02:22:17;78403.16;;;-144.67;100.00
47522;BME280;32291;52.010;4.446;2023-05-22T02:23:18;78403.16;;;-144.67;100.00
47522;BME280;32291;52.010;4.446;2023-05-22T02:24:21;78405.28;;;-144.67;100.00
47522;BME280;32291;52.010;4.446;2023-05-22T02:25:23;78409.56;;;-144.67;100.00
47522;BME280;32291;52.010;4.446;2023-05-22T02:26:25;78401.00;;;-144.67;100.00
47522;BME280;32291;52.010;4.446;2023-05-22T02:27:27;78398.88;;;-144.67;100.00
47522;BME280;32291;52.010;4.446;2023-05-22T02:28:29;78403.16;;;-144.67;100.00
47522;BME280;32291;52.010;4.446;2023-05-22T02:29:31;78409.56;;;-144.67;100.00
47522;BME280;32291;52.010;4.446;2023-05-22T02:30:33;78407.44;;;-144.67;100.00
47522;BME280;32291;52.010;4.446;2023-05-22T02:31:34;78409.56;;;-144.67;100.00
47522;BME280;32291;52.010;4.446;2023-05-22T02:32:36;78407.44;;;-144.67;100.00
47522;BME280;32291;52.010;4.446;2023-05-22T02:33:38;78411.72;;;-144.67;100.00
47522;BME280;32291;52.010;4.446;2023-05-22T02:34:39;78403.16;;;-144.67;100.00
47522;BME280;32291;52.010;4.446;2023-05-22T02:35:44;78398.88;;;-144.67;100.00
47522;BME280;32291;52.010;4.446;2023-05-22T02:36:46;78390.31;;;-144.67;100.00
47522;BME280;32291;52.010;4.446;2023-05-22T02:37:48;78392.44;;;-144.67;100.00
47522;BME280;32291;52.010;4.446;2023-05-22T02:38:51;78394.59;;;-144.67;100.00
47522;BME280;32291;52.010;4.446;2023-05-22T02:39:52;78398.88;;;-144.67;100.00
47522;BME280;32291;52.010;4.446;2023-05-22T02:40:54;78398.88;;;-144.67;100.00
47522;BME280;32291;52.010;4.446;2023-05-22T02:41:55;78405.28;;;-144.67;100.00
47522;BME280;32291;52.010;4.446;2023-05-22T02:42:57;78403.16;;;-144.67;100.00
47522;BME280;32291;52.010;4.446;2023-05-22T02:43:59;78407.44;;;-144.67;100.00
47522;BME280;32291;52.010;4.446;2023-05-22T02:45:01;78407.44;;;-144.67;100.00
47522;BME280;32291;52.010;4.446;2023-05-22T02:46:03;78403.16;;;-144.67;100.00
47522;BME280;32291;52.010;4.446;2023-05-22T02:47:05;78403.16;;;-144.67;100.00
47522;BME280;32291;52.010;4.446;2023-05-22T02:48:07;78413.84;;;-144.67;100.00
47522;BME280;32291;52.010;4.446;2023-05-22T02:49:08;78420.28;;;-144.67;100.00
47522;BME280;32291;52.010;4.446;2023-05-22T02:50:10;78428.84;;;-144.67;100.00
47522;BME280;32291;52.010;4.446;2023-05-22T02:51:12;78424.56;;;-144.67;100.00
47522;BME280;32291;52.010;4.446;2023-05-22T02:52:14;78424.56;;;-144.67;100.00
47522;BME280;32291;52.010;4.446;2023-05-22T02:53:15;78416.00;;;-144.67;100.00
47522;BME280;32291;52.010;4.446;2023-05-22T02:54:17;78401.00;;;-144.67;100.00
47522;BME280;32291;52.010;4.446;2023-05-22T02:55:19;78407.44;;;-144.67;100.00
47522;BME280;32291;52.010;4.446;2023-05-22T02:56:21;78407.44;;;-144.67;100.00
47522;BME280;32291;52.010;4.446;2023-05-22T02:57:24;78416.00;;;-144.67;100.00
47522;BME280;32291;52.010;4.446;2023-05-22T02:58:25;78428.84;;;-144.67;100.00
47522;BME280;32291;52.010;4.446;2023-05-22T02:59:27;78428.84;;;-144.67;100.00
47522;BME280;32291;52.010;4.446;2023-05-22T03:00:29;78433.13;;;-144.67;100.00
47522;BME280;32291;52.010;4.446;2023-05-22T03:01:31;78441.69;;;-144.67;100.00
47522;BME280;32291;52.010;4.446;2023-05-22T03:02:33;78450.25;;;-144.67;100.00
47522;BME280;32291;52.010;4.446;2023-05-22T03:03:37;78441.69;;;-144.67;100.00
47522;BME280;32291;52.010;4.446;2023-05-22T03:04:39;78448.09;;;-144.67;100.00
47522;BME280;32291;52.010;4.446;2023-05-22T03:05:41;78450.25;;;-144.67;100.00
47522;BME280;32291;52.010;4.446;2023-05-22T03:06:43;78443.81;;;-144.67;100.00
47522;BME280;32291;52.010;4.446;2023-05-22T03:07:46;78443.81;;;-144.67;100.00
47522;BME280;32291;52.010;4.446;2023-05-22T03:08:49;78437.41;;;-144.67;100.00
47522;BME280;32291;52.010;4.446;2023-05-22T03:09:51;78437.41;;;-144.67;100.00
47522;BME280;32291;52.010;4.446;2023-05-22T03:10:55;78441.69;;;-144.67;100.00
47522;BME280;32291;52.010;4.446;2023-05-22T03:11:57;78437.41;;;-144.67;100.00
47522;BME280;32291;52.010;4.446;2023-05-22T03:12:59;78426.69;;;-144.67;100.00
47522;BME280;32291;52.010;4.446;2023-05-22T03:14:02;78426.69;;;-144.67;100.00
47522;BME280;32291;52.010;4.446;2023-05-22T03:15:05;78424.56;;;-144.67;100.00
47522;BME280;32291;52.010;4.446;2023-05-22T03:16:07;78418.13;;;-144.67;100.00
47522;BME280;32291;52.010;4.446;2023-05-22T03:17:08;78426.69;;;-144.67;100.00
47522;BME280;32291;52.010;4.446;2023-05-22T03:18:10;78424.56;;;-144.67;100.00
47522;BME280;32291;52.010;4.446;2023-05-22T03:19:14;78424.56;;;-144.67;100.00
47522;BME280;32291;52.010;4.446;2023-05-22T03:20:17;78437.41;;;-144.67;100.00
47522;BME280;32291;52.010;4.446;2023-05-22T03:21:18;78424.56;;;-144.67;100.00
47522;BME280;32291;52.010;4.446;2023-05-22T03:22:20;78422.41;;;-144.67;100.00
47522;BME280;32291;52.010;4.446;2023-05-22T03:23:21;78433.13;;;-144.67;100.00
47522;BME280;32291;52.010;4.446;2023-05-22T03:24:25;78424.56;;;-144.67;100.00
47522;BME280;32291;52.010;4.446;2023-05-22T03:25:27;78428.84;;;-144.67;100.00
47522;BME280;32291;52.010;4.446;2023-05-22T03:26:29;78437.41;;;-144.67;100.00
47522;BME280;32291;52.010;4.446;2023-05-22T03:27:31;78439.53;;;-144.67;100.00
47522;BME280;32291;52.010;4.446;2023-05-22T03:28:33;78441.69;;;-144.67;100.00
47522;BME280;32291;52.010;4.446;2023-05-22T03:29:34;78441.69;;;-144.67;100.00
47522;BME280;32291;52.010;4.446;2023-05-22T03:30:36;78437.41;;;-144.67;100.00
47522;BME280;32291;52.010;4.446;2023-05-22T03:31:38;78437.41;;;-144.67;100.00
47522;BME280;32291;52.010;4.446;2023-05-22T03:32:40;78441.69;;;-144.67;100.00
47522;BME280;32291;52.010;4.446;2023-05-22T03:33:42;78437.41;;;-144.67;100.00
47522;BME280;32291;52.010;4.446;2023-05-22T03:34:44;78433.13;;;-144.67;100.00
47522;BME280;32291;52.010;4.446;2023-05-22T03:35:46;78433.13;;;-144.67;100.00
47522;BME280;32291;52.010;4.446;2023-05-22T03:36:47;78428.84;;;-144.67;100.00
47522;BME280;32291;52.010;4.446;2023-05-22T03:37:49;78424.56;;;-144.67;100.00
47522;BME280;32291;52.010;4.446;2023-05-22T03:38:52;78420.28;;;-144.67;100.00
47522;BME280;32291;52.010;4.446;2023-05-22T03:39:54;78420.28;;;-144.67;100.00
47522;BME280;32291;52.010;4.446;2023-05-22T03:40:56;78422.41;;;-144.67;100.00
47522;BME280;32291;52.010;4.446;2023-05-22T03:41:58;78420.28;;;-144.67;100.00
47522;BME280;32291;52.010;4.446;2023-05-22T03:42:59;78420.28;;;-144.67;100.00
47522;BME280;32291;52.010;4.446;2023-05-22T03:44:02;78424.56;;;-144.67;100.00
47522;BME280;32291;52.010;4.446;2023-05-22T03:45:04;78411.72;;;-144.67;100.00
47522;BME280;32291;52.010;4.446;2023-05-22T03:46:06;78407.44;;;-144.67;100.00
47522;BME280;32291;52.010;4.446;2023-05-22T03:47:08;78411.72;;;-144.67;100.00
47522;BME280;32291;52.010;4.446;2023-05-22T03:48:10;78403.16;;;-144.67;100.00
47522;BME280;32291;52.010;4.446;2023-05-22T03:49:12;78407.44;;;-144.67;100.00
47522;BME280;32291;52.010;4.446;2023-05-22T03:50:14;78405.28;;;-144.67;100.00
47522;BME280;32291;52.010;4.446;2023-05-22T03:51:16;78407.44;;;-144.67;100.00
47522;BME280;32291;52.010;4.446;2023-05-22T03:52:17;78411.72;;;-144.67;100.00
47522;BME280;32291;52.010;4.446;2023-05-22T03:53:19;78411.72;;;-144.67;100.00
47522;BME280;32291;52.010;4.446;2023-05-22T03:54:21;78409.56;;;-144.67;100.00
47522;BME280;32291;52.010;4.446;2023-05-22T03:55:23;78416.00;;;-144.67;100.00
47522;BME280;32291;52.010;4.446;2023-05-22T03:56:24;78418.13;;;-144.67;100.00
47522;BME280;32291;52.010;4.446;2023-05-22T03:57:26;78416.00;;;-144.67;100.00
47522;BME280;32291;52.010;4.446;2023-05-22T03:58:28;78420.28;;;-144.67;100.00
47522;BME280;32291;52.010;4.446;2023-05-22T03:59:30;78416.00;;;-144.67;100.00
47522;BME280;32291;52.010;4.446;2023-05-22T04:00:32;78420.28;;;-144.67;100.00
47522;BME280;32291;52.010;4.446;2023-05-22T04:01:35;78420.28;;;-144.67;100.00
47522;BME280;32291;52.010;4.446;2023-05-22T04:02:39;78422.41;;;-144.67;100.00
47522;BME280;32291;52.010;4.446;2023-05-22T04:03:44;78416.00;;;-144.67;100.00
47522;BME280;32291;52.010;4.446;2023-05-22T04:04:46;78416.00;;;-144.67;100.00
47522;BME280;32291;52.010;4.446;2023-05-22T04:05:48;78420.28;;;-144.67;100.00
47522;BME280;32291;52.010;4.446;2023-05-22T04:06:52;78416.00;;;-144.67;100.00
47522;BME280;32291;52.010;4.446;2023-05-22T04:07:54;78420.28;;;-144.67;100.00
47522;BME280;32291;52.010;4.446;2023-05-22T04:08:55;78418.13;;;-144.67;100.00
47522;BME280;32291;52.010;4.446;2023-05-22T04:09:57;78424.56;;;-144.67;100.00
47522;BME280;32291;52.010;4.446;2023-05-22T04:10:58;78411.72;;;-144.67;100.00
47522;BME280;32291;52.010;4.446;2023-05-22T04:12:01;78407.44;;;-144.67;100.00
47522;BME280;32291;52.010;4.446;2023-05-22T04:13:04;78407.44;;;-144.67;100.00
47522;BME280;32291;52.010;4.446;2023-05-22T04:14:07;78409.56;;;-144.67;100.00
47522;BME280;32291;52.010;4.446;2023-05-22T04:15:09;78403.16;;;-144.67;100.00
47522;BME280;32291;52.010;4.446;2023-05-22T04:16:11;78411.72;;;-144.67;100.00
47522;BME280;32291;52.010;4.446;2023-05-22T04:17:13;78413.84;;;-144.67;100.00
47522;BME280;32291;52.010;4.446;2023-05-22T04:18:15;78407.44;;;-144.67;100.00
47522;BME280;32291;52.010;4.446;2023-05-22T04:19:16;78403.16;;;-144.67;100.00
47522;BME280;32291;52.010;4.446;2023-05-22T04:20:18;78403.16;;;-144.67;100.00
47522;BME280;32291;52.010;4.446;2023-05-22T04:21:22;78396.72;;;-144.67;100.00
47522;BME280;32291;52.010;4.446;2023-05-22T04:22:28;78396.72;;;-144.67;100.00
47522;BME280;32291;52.010;4.446;2023-05-22T04:23:31;78403.16;;;-144.67;100.00
47522;BME280;32291;52.010;4.446;2023-05-22T04:24:33;78396.72;;;-144.67;100.00
47522;BME280;32291;52.010;4.446;2023-05-22T04:25:35;78392.44;;;-144.67;100.00
47522;BME280;32291;52.010;4.446;2023-05-22T04:26:37;78386.03;;;-144.67;100.00
47522;BME280;32291;52.010;4.446;2023-05-22T04:27:39;78381.72;;;-144.67;100.00
47522;BME280;32291;52.010;4.446;2023-05-22T04:28:46;78366.75;;;-144.67;100.00
47522;BME280;32291;52.010;4.446;2023-05-22T04:29:48;78356.03;;;-144.67;100.00
47522;BME280;32291;52.010;4.446;2023-05-22T04:30:50;78358.19;;;-144.67;100.00
47522;BME280;32291;52.010;4.446;2023-05-22T04:31:52;78356.03;;;-144.67;100.00
47522;BME280;32291;52.010;4.446;2023-05-22T04:32:55;78356.03;;;-144.67;100.00
47522;BME280;32291;52.010;4.446;2023-05-22T04:33:57;78358.19;;;-144.67;100.00
47522;BME280;32291;52.010;4.446;2023-05-22T04:35:00;78364.59;;;-144.67;100.00
47522;BME280;32291;52.010;4.446;2023-05-22T04:36:03;78360.31;;;-144.67;100.00
47522;BME280;32291;52.010;4.446;2023-05-22T04:37:05;78356.03;;;-144.67;100.00
47522;BME280;32291;52.010;4.446;2023-05-22T04:38:07;78356.03;;;-144.67;100.00
47522;BME280;32291;52.010;4.446;2023-05-22T04:39:08;78349.63;;;-144.67;100.00
47522;BME280;32291;52.010;4.446;2023-05-22T04:40:11;78356.03;;;-144.67;100.00
47522;BME280;32291;52.010;4.446;2023-05-22T04:41:15;78349.63;;;-144.67;100.00
47522;BME280;32291;52.010;4.446;2023-05-22T04:42:19;78345.34;;;-144.67;100.00
47522;BME280;32291;52.010;4.446;2023-05-22T04:43:21;78338.91;;;-144.67;100.00
47522;BME280;32291;52.010;4.446;2023-05-22T04:44:27;78347.47;;;-144.67;100.00
47522;BME280;32291;52.010;4.446;2023-05-22T04:45:31;78341.06;;;-144.67;100.00
47522;BME280;32291;52.010;4.446;2023-05-22T04:46:34;78338.91;;;-144.67;100.00
47522;BME280;32291;52.010;4.446;2023-05-22T04:47:36;78336.78;;;-144.67;100.00
47522;BME280;32291;52.010;4.446;2023-05-22T04:48:39;78334.63;;;-144.67;100.00
47522;BME280;32291;52.010;4.446;2023-05-22T04:49:40;78328.22;;;-144.67;100.00
47522;BME280;32291;52.010;4.446;2023-05-22T04:50:43;78326.06;;;-144.67;100.00
47522;BME280;32291;52.010;4.446;2023-05-22T04:51:46;78321.78;;;-144.67;100.00
47522;BME280;32291;52.010;4.446;2023-05-22T04:52:48;78323.94;;;-144.67;100.00
47522;BME280;32291;52.010;4.446;2023-05-22T04:53:50;78323.94;;;-144.67;100.00
47522;BME280;32291;52.010;4.446;2023-05-22T04:54:52;78323.94;;;-144.67;100.00
47522;BME280;32291;52.010;4.446;2023-05-22T04:55:57;78313.22;;;-144.67;100.00
47522;BME280;32291;52.010;4.446;2023-05-22T04:57:00;78311.09;;;-144.67;100.00
47522;BME280;32291;52.010;4.446;2023-05-22T04:58:05;78300.38;;;-144.67;100.00
47522;BME280;32291;52.010;4.446;2023-05-22T04:59:07;78291.81;;;-144.67;100.00
47522;BME280;32291;52.010;4.446;2023-05-22T05:00:10;78283.25;;;-144.67;100.00
47522;BME280;32291;52.010;4.446;2023-05-22T05:01:13;78287.53;;;-144.67;100.00
47522;BME280;32291;52.010;4.446;2023-05-22T05:02:16;78283.25;;;-144.67;100.00
47522;BME280;32291;52.010;4.446;2023-05-22T05:03:19;78287.53;;;-144.67;100.00
47522;BME280;32291;52.010;4.446;2023-05-22T05:04:21;78287.53;;;-144.67;100.00
47522;BME280;32291;52.010;4.446;2023-05-22T05:05:23;78283.25;;;-144.67;100.00
47522;BME280;32291;52.010;4.446;2023-05-22T05:06:25;78285.38;;;-144.67;100.00
47522;BME280;32291;52.010;4.446;2023-05-22T05:07:26;78287.53;;;-144.67;100.00
47522;BME280;32291;52.010;4.446;2023-05-22T05:08:28;78283.25;;;-144.67;100.00
47522;BME280;32291;52.010;4.446;2023-05-22T05:09:29;78276.81;;;-144.67;100.00
47522;BME280;32291;52.010;4.446;2023-05-22T05:10:31;78266.13;;;-144.67;100.00
47522;BME280;32291;52.010;4.446;2023-05-22T05:11:34;78261.84;;;-144.67;100.00
47522;BME280;32291;52.010;4.446;2023-05-22T05:12:36;78257.56;;;-144.67;100.00
47522;BME280;32291;52.010;4.446;2023-05-22T05:13:37;78249.00;;;-144.67;100.00
47522;BME280;32291;52.010;4.446;2023-05-22T05:14:39;78249.00;;;-144.67;100.00
47522;BME280;32291;52.010;4.446;2023-05-22T05:15:41;78251.13;;;-144.67;100.00
47522;BME280;32291;52.010;4.446;2023-05-22T05:16:43;78238.28;;;-144.67;100.00
47522;BME280;32291;52.010;4.446;2023-05-22T05:17:45;78240.44;;;-144.67;100.00
47522;BME280;32291;52.010;4.446;2023-05-22T05:18:46;78227.59;;;-144.67;100.00
47522;BME280;32291;52.010;4.446;2023-05-22T05:19:48;78219.03;;;-144.67;100.00
47522;BME280;32291;52.010;4.446;2023-05-22T05:20:50;78210.47;;;-144.67;100.00
47522;BME280;32291;52.010;4.446;2023-05-22T05:21:52;78201.91;;;-144.67;100.00
47522;BME280;32291;52.010;4.446;2023-05-22T05:22:53;78193.31;;;-144.67;100.00
47522;BME280;32291;52.010;4.446;2023-05-22T05:23:55;78186.91;;;-144.67;100.00
47522;BME280;32291;52.010;4.446;2023-05-22T05:24:57;78167.63;;;-144.67;100.00
47522;BME280;32291;52.010;4.446;2023-05-22T05:25:58;78163.34;;;-144.67;100.00
47522;BME280;32291;52.010;4.446;2023-05-22T05:27:00;78163.34;;;-144.67;100.00
47522;BME280;32291;52.010;4.446;2023-05-22T05:28:05;78154.78;;;-144.67;100.00
47522;BME280;32291;52.010;4.446;2023-05-22T05:29:12;78150.50;;;-144.67;100.00
47522;BME280;32291;52.010;4.446;2023-05-22T05:30:14;78137.66;;;-144.67;100.00
47522;BME280;32291;52.010;4.446;2023-05-22T05:31:19;78124.81;;;-144.67;100.00
47522;BME280;32291;52.010;4.446;2023-05-22T05:32:21;78111.97;;;-144.67;100.00
47522;BME280;32291;52.010;4.446;2023-05-22T05:33:23;78107.69;;;-144.67;100.00
47522;BME280;32291;52.010;4.446;2023-05-22T05:34:24;78105.56;;;-144.67;100.00
47522;BME280;32291;52.010;4.446;2023-05-22T05:35:26;78109.84;;;-144.67;100.00
47522;BME280;32291;52.010;4.446;2023-05-22T05:36:28;78097.00;;;-144.67;100.00
47522;BME280;32291;52.010;4.446;2023-05-22T05:37:30;78094.84;;;-144.67;100.00
47522;BME280;32291;52.010;4.446;2023-05-22T05:38:32;78094.84;;;-144.67;100.00